createdAt,value
2018-04-14T00:02:31.975Z,40.70
2018-04-14T00:05:35.781Z,40.60
2018-04-14T00:08:39.595Z,40.70
2018-04-14T00:11:43.364Z,40.70
2018-04-14T00:14:47.181Z,40.70
2018-04-14T00:17:50.969Z,40.70
2018-04-14T00:20:54.760Z,40.70
2018-04-14T00:23:58.567Z,40.70
2018-04-14T00:27:03.099Z,40.70
2018-04-14T00:30:07.653Z,40.70
2018-04-14T00:33:12.194Z,40.70
2018-04-14T00:36:16.733Z,40.70
2018-04-14T00:39:21.613Z,40.70
2018-04-14T00:42:25.388Z,40.70
2018-04-14T00:45:29.189Z,40.70
2018-04-14T00:48:32.998Z,40.70
2018-04-14T00:51:36.796Z,40.70
2018-04-14T00:54:41.340Z,40.70
2018-04-14T00:57:45.154Z,40.60
2018-04-14T01:00:49.734Z,40.70
2018-04-14T01:03:53.561Z,40.60
2018-04-14T01:06:57.356Z,40.70
2018-04-14T01:10:01.274Z,40.60
2018-04-14T01:13:05.799Z,40.70
2018-04-14T01:16:09.600Z,40.60
2018-04-14T01:19:14.194Z,40.70
2018-04-14T01:22:17.967Z,40.60
2018-04-14T01:25:21.840Z,40.70
2018-04-14T01:28:25.625Z,40.70
2018-04-14T01:31:29.434Z,40.70
2018-04-14T01:34:33.260Z,40.70
2018-04-14T01:37:37.041Z,40.70
2018-04-14T01:40:40.836Z,40.70
2018-04-14T01:43:45.361Z,41.40
2018-04-14T01:46:49.158Z,40.60
2018-04-14T01:49:52.967Z,40.70
2018-04-14T01:52:56.761Z,40.60
2018-04-14T01:56:01.300Z,40.70
2018-04-14T01:59:05.850Z,40.60
2018-04-14T02:02:10.385Z,40.70
2018-04-14T02:05:14.932Z,40.70
2018-04-14T02:08:19.467Z,40.60
2018-04-14T02:11:23.310Z,40.60
2018-04-14T02:14:27.121Z,40.60
2018-04-14T02:17:30.898Z,40.70
2018-04-14T02:20:34.712Z,40.70
2018-04-14T02:23:38.493Z,40.70
2018-04-14T02:26:43.053Z,40.70
2018-04-14T02:29:46.858Z,40.70
2018-04-14T02:32:51.381Z,40.70
2018-04-14T02:35:56.033Z,40.70
2018-04-14T02:39:00.561Z,40.60
2018-04-14T02:42:04.365Z,40.60
2018-04-14T02:45:08.974Z,40.70
2018-04-14T02:48:12.779Z,40.60
2018-04-14T02:51:16.587Z,40.60
2018-04-14T02:54:21.133Z,40.70
2018-04-14T02:57:25.683Z,40.70
2018-04-14T03:00:30.236Z,40.70
2018-04-14T03:03:34.016Z,40.70
2018-04-14T03:06:38.622Z,40.70
2018-04-14T03:09:42.416Z,40.70
2018-04-14T03:12:46.197Z,40.70
2018-04-14T03:15:50.006Z,40.70
2018-04-14T03:18:53.797Z,40.70
2018-04-14T03:21:57.642Z,40.70
2018-04-14T03:25:01.436Z,40.70
2018-04-14T03:28:05.209Z,40.80
2018-04-14T03:31:09.055Z,40.70
2018-04-14T03:34:13.722Z,40.70
2018-04-14T03:37:18.299Z,40.70
2018-04-14T03:40:22.103Z,40.60
2018-04-14T03:43:25.884Z,40.70
2018-04-14T03:46:29.686Z,40.70
2018-04-14T03:49:33.464Z,40.70
2018-04-14T03:52:37.274Z,40.70
2018-04-14T03:55:41.821Z,40.70
2018-04-14T03:58:46.358Z,40.70
2018-04-14T04:01:50.916Z,40.70
2018-04-14T04:04:54.692Z,40.60
2018-04-14T04:07:58.489Z,40.70
2018-04-14T04:11:02.281Z,40.80
2018-04-14T04:14:06.808Z,40.70
2018-04-14T04:17:11.354Z,40.90
2018-04-14T04:24:14.482Z,40.60
2018-04-14T04:27:18.292Z,40.60
2018-04-14T04:30:22.116Z,40.70
2018-04-14T04:33:25.897Z,40.70
2018-04-14T04:36:30.440Z,40.70
2018-04-14T04:39:34.245Z,40.70
2018-04-14T04:42:38.808Z,40.70
2018-04-14T04:45:42.616Z,40.60
2018-04-14T04:48:47.199Z,40.70
2018-04-14T04:51:50.975Z,40.70
2018-04-14T04:54:55.638Z,40.70
2018-04-14T04:57:59.452Z,40.70
2018-04-14T05:01:03.277Z,40.70
2018-04-14T05:04:07.799Z,40.80
2018-04-14T05:07:11.600Z,40.70
2018-04-14T05:10:15.382Z,41.10
2018-04-14T05:13:19.185Z,40.80
2018-04-14T05:16:23.735Z,40.80
2018-04-14T05:19:27.557Z,40.70
2018-04-14T05:22:31.362Z,40.80
2018-04-14T05:25:35.901Z,40.80
2018-04-14T05:28:40.455Z,41.10
2018-04-14T05:31:45.005Z,40.80
2018-04-14T05:34:48.789Z,40.80
2018-04-14T05:37:52.597Z,40.80
2018-04-14T05:40:56.380Z,40.80
2018-04-14T05:44:00.176Z,40.80
2018-04-14T05:47:03.990Z,40.80
2018-04-14T05:50:07.785Z,41.30
2018-04-14T05:53:11.591Z,40.90
2018-04-14T05:56:15.377Z,40.80
2018-04-14T05:59:19.190Z,40.80
2018-04-14T06:02:22.996Z,40.90
2018-04-14T06:05:26.772Z,40.80
2018-04-14T06:08:30.634Z,40.80
2018-04-14T06:11:34.619Z,40.80
2018-04-14T06:14:39.133Z,40.80
2018-04-14T06:17:42.941Z,40.80
2018-04-14T06:20:46.724Z,41.50
2018-04-14T06:23:50.536Z,40.90
2018-04-14T06:26:55.080Z,40.80
2018-04-14T06:29:59.605Z,40.80
2018-04-14T06:33:04.167Z,40.90
2018-04-14T06:36:07.971Z,40.80
2018-04-14T06:39:11.782Z,40.90
2018-04-14T06:42:15.584Z,40.80
2018-04-14T06:45:20.752Z,40.90
2018-04-14T06:48:24.545Z,40.80
2018-04-14T06:51:28.323Z,40.80
2018-04-14T06:54:32.890Z,40.90
2018-04-14T06:57:38.077Z,40.80
2018-04-14T07:00:41.851Z,40.40
2018-04-14T07:03:46.408Z,40.80
2018-04-14T07:06:50.184Z,40.80
2018-04-14T07:09:53.986Z,40.90
2018-04-14T07:12:57.785Z,40.90
2018-04-14T07:16:01.705Z,40.90
2018-04-14T07:19:06.323Z,40.90
2018-04-14T07:22:10.119Z,40.90
2018-04-14T07:25:13.932Z,40.90
2018-04-14T07:28:17.733Z,41.10
2018-04-14T07:31:21.505Z,40.90
2018-04-14T07:34:25.331Z,40.90
2018-04-14T07:37:29.142Z,41.00
2018-04-14T07:40:32.945Z,41.10
2018-04-14T07:43:36.807Z,41.00
2018-04-14T07:46:40.620Z,40.90
2018-04-14T07:49:44.429Z,41.00
2018-04-14T07:52:48.238Z,41.00
2018-04-14T07:55:52.021Z,40.90
2018-04-14T07:58:55.821Z,41.00
2018-04-14T08:01:59.605Z,41.00
2018-04-14T08:05:03.416Z,41.10
2018-04-14T08:08:07.233Z,41.10
2018-04-14T08:11:11.050Z,41.10
2018-04-14T08:14:15.597Z,41.10
2018-04-14T08:17:20.126Z,41.10
2018-04-14T08:20:24.695Z,41.20
2018-04-14T08:23:28.514Z,41.10
2018-04-14T08:26:32.309Z,41.20
2018-04-14T08:29:36.117Z,41.10
2018-04-14T08:32:39.910Z,41.20
2018-04-14T08:35:43.715Z,41.20
2018-04-14T08:38:47.517Z,41.20
2018-04-14T08:41:52.038Z,41.20
2018-04-14T08:44:55.851Z,41.20
2018-04-14T08:47:59.654Z,41.20
2018-04-14T08:51:03.448Z,41.20
2018-04-14T08:54:07.270Z,41.20
2018-04-14T08:57:11.059Z,41.20
2018-04-14T09:00:14.875Z,41.20
2018-04-14T09:03:20.157Z,41.20
2018-04-14T09:06:24.688Z,41.20
2018-04-14T09:09:29.246Z,41.20
2018-04-14T09:12:33.155Z,41.10
2018-04-14T09:15:37.720Z,41.10
2018-04-14T09:18:41.565Z,41.10
2018-04-14T09:21:45.342Z,41.20
2018-04-14T09:24:49.892Z,41.20
2018-04-14T09:27:54.420Z,41.20
2018-04-14T09:30:58.224Z,41.10
2018-04-14T09:34:02.042Z,40.90
2018-04-14T09:37:06.315Z,41.20
2018-04-14T09:40:10.093Z,41.20
2018-04-14T09:43:13.875Z,41.20
2018-04-14T09:46:18.568Z,41.20
2018-04-14T09:49:22.463Z,41.20
2018-04-14T09:52:26.332Z,41.30
2018-04-14T09:55:30.146Z,41.30
2018-04-14T09:58:34.062Z,41.20
2018-04-14T10:01:38.056Z,41.30
2018-04-14T10:04:41.941Z,41.20
2018-04-14T10:07:45.766Z,41.10
2018-04-14T10:10:49.579Z,41.20
2018-04-14T10:13:53.371Z,41.30
2018-04-14T10:16:57.165Z,41.40
2018-04-14T10:20:01.719Z,41.20
2018-04-14T10:23:06.254Z,41.10
2018-04-14T10:26:10.073Z,41.10
2018-04-14T10:29:14.611Z,41.20
2018-04-14T10:32:19.801Z,41.20
2018-04-14T10:35:23.600Z,41.10
2018-04-14T10:38:28.123Z,41.20
2018-04-14T10:41:32.786Z,41.30
2018-04-14T10:44:36.617Z,41.30
2018-04-14T10:47:42.418Z,42.00
2018-04-14T10:50:46.266Z,41.40
2018-04-14T10:53:50.072Z,41.40
2018-04-14T10:56:53.868Z,41.40
2018-04-14T10:59:57.673Z,41.40
2018-04-14T11:03:02.530Z,41.30
2018-04-14T11:06:06.353Z,41.40
2018-04-14T11:09:10.908Z,41.40
2018-04-14T11:12:14.681Z,41.30
2018-04-14T11:15:18.518Z,41.30
2018-04-14T11:18:23.084Z,41.40
2018-04-14T11:21:26.899Z,41.30
2018-04-14T11:24:31.461Z,41.40
2018-04-14T11:27:35.306Z,41.30
2018-04-14T11:30:39.161Z,41.30
2018-04-14T11:33:42.954Z,41.40
2018-04-14T11:36:46.753Z,41.40
2018-04-14T11:39:50.586Z,41.30
2018-04-14T11:42:54.357Z,41.30
2018-04-14T11:45:58.171Z,41.30
2018-04-14T11:49:01.958Z,41.30
2018-04-14T11:52:05.769Z,41.30
2018-04-14T11:55:09.577Z,41.30
2018-04-14T11:58:13.499Z,41.30
2018-04-14T12:01:17.344Z,41.30
2018-04-14T12:04:21.133Z,41.30
2018-04-14T12:07:24.946Z,41.30
2018-04-14T12:10:28.781Z,41.30
2018-04-14T12:13:32.669Z,41.30
2018-04-14T12:16:36.508Z,41.30
2018-04-14T12:19:40.297Z,41.30
2018-04-14T12:22:44.849Z,41.30
2018-04-14T12:25:49.403Z,41.30
2018-04-14T12:28:53.180Z,41.30
2018-04-14T12:31:56.996Z,41.30
2018-04-14T12:35:00.807Z,41.30
2018-04-14T12:38:04.597Z,41.30
2018-04-14T12:41:08.393Z,41.30
2018-04-14T12:44:13.023Z,41.30
2018-04-14T12:47:17.584Z,41.30
2018-04-14T12:50:22.139Z,41.30
2018-04-14T12:53:25.921Z,41.30
2018-04-14T12:56:29.718Z,41.30
2018-04-14T12:59:33.503Z,41.30
2018-04-14T13:02:38.064Z,41.30
2018-04-14T13:05:41.913Z,41.20
2018-04-14T13:08:46.439Z,41.40
2018-04-14T13:11:51.118Z,41.30
2018-04-14T13:14:54.902Z,41.30
2018-04-14T13:17:59.465Z,41.30
2018-04-14T13:21:03.375Z,41.30
2018-04-14T13:24:07.891Z,41.30
2018-04-14T13:27:11.721Z,41.20
2018-04-14T13:30:16.276Z,41.30
2018-04-14T13:33:20.825Z,41.30
2018-04-14T13:36:25.367Z,41.30
2018-04-14T13:39:29.176Z,41.20
2018-04-14T13:42:33.717Z,41.40
2018-04-14T13:45:38.285Z,41.40
2018-04-14T13:48:42.087Z,41.30
2018-04-14T13:51:46.628Z,41.30
2018-04-14T13:54:51.183Z,41.30
2018-04-14T13:57:55.709Z,41.40
2018-04-14T14:01:00.258Z,41.30
2018-04-14T14:04:04.042Z,41.30
2018-04-14T14:07:07.846Z,41.30
2018-04-14T14:10:11.642Z,41.30
2018-04-14T14:13:15.466Z,41.40
2018-04-14T14:16:19.274Z,41.30
2018-04-14T14:19:23.797Z,41.40
2018-04-14T14:22:27.631Z,41.30
2018-04-14T14:25:32.150Z,41.60
2018-04-14T14:28:37.464Z,41.30
2018-04-14T14:31:41.257Z,41.30
2018-04-14T14:34:45.780Z,41.40
2018-04-14T14:37:49.588Z,41.30
2018-04-14T14:40:53.385Z,41.30
2018-04-14T14:43:57.206Z,41.30
2018-04-14T14:47:01.029Z,41.40
2018-04-14T14:50:10.357Z,41.30
2018-04-14T14:53:14.915Z,41.40
2018-04-14T14:56:18.716Z,41.30
2018-04-14T14:59:23.253Z,41.40
2018-04-14T15:02:27.801Z,41.40
2018-04-14T15:05:32.327Z,41.40
2018-04-14T15:08:36.139Z,41.40
2018-04-14T15:11:39.952Z,41.40
2018-04-14T15:14:43.726Z,41.40
2018-04-14T15:17:47.533Z,41.40
2018-04-14T15:20:52.063Z,41.50
2018-04-14T15:23:55.893Z,41.40
2018-04-14T15:26:59.749Z,42.10
2018-04-14T15:30:03.620Z,41.50
2018-04-14T15:33:07.430Z,41.50
2018-04-14T15:36:11.958Z,41.50
2018-04-14T15:39:15.773Z,41.40
2018-04-14T15:42:19.581Z,41.40
2018-04-14T15:45:23.359Z,41.40
2018-04-14T15:48:27.184Z,41.40
2018-04-14T15:51:30.967Z,41.30
2018-04-14T15:54:34.772Z,41.50
2018-04-14T15:57:38.596Z,41.30
2018-04-14T16:00:42.381Z,41.50
2018-04-14T16:03:46.201Z,41.40
2018-04-14T16:06:50.041Z,41.50
2018-04-14T16:09:53.943Z,41.30
2018-04-14T16:12:58.496Z,41.40
2018-04-14T16:16:02.281Z,41.30
2018-04-14T16:19:06.075Z,41.30
2018-04-14T16:22:09.902Z,41.40
2018-04-14T16:25:13.690Z,41.40
2018-04-14T16:28:17.496Z,41.50
2018-04-14T16:31:22.063Z,41.40
2018-04-14T16:34:25.868Z,41.30
2018-04-14T16:37:30.440Z,41.50
2018-04-14T16:40:34.222Z,41.40
2018-04-14T16:43:38.032Z,41.40
2018-04-14T16:46:41.862Z,41.50
2018-04-14T16:49:45.822Z,41.40
2018-04-14T16:52:50.375Z,41.40
2018-04-14T16:55:54.161Z,41.40
2018-04-14T16:58:57.971Z,41.40
2018-04-14T17:02:01.762Z,41.30
2018-04-14T17:05:05.671Z,41.40
2018-04-14T17:08:10.229Z,41.40
2018-04-14T17:11:14.008Z,41.40
2018-04-14T17:14:17.810Z,41.40
2018-04-14T17:17:21.624Z,41.40
2018-04-14T17:20:25.404Z,41.40
2018-04-14T17:23:29.952Z,41.40
2018-04-14T17:26:34.486Z,41.50
2018-04-14T17:29:39.140Z,41.40
2018-04-14T17:32:42.955Z,41.30
2018-04-14T17:35:47.478Z,41.40
2018-04-14T17:38:51.309Z,41.30
2018-04-14T17:41:55.863Z,41.70
2018-04-14T17:45:00.405Z,41.40
2018-04-14T17:48:05.054Z,41.40
2018-04-14T17:51:09.688Z,41.40
2018-04-14T17:54:14.245Z,41.40
2018-04-14T17:57:18.058Z,41.40
2018-04-14T18:00:22.602Z,41.40
2018-04-14T18:03:27.228Z,41.40
2018-04-14T18:06:31.760Z,41.50
2018-04-14T18:09:35.632Z,41.40
2018-04-14T18:12:40.149Z,41.40
2018-04-14T18:15:43.957Z,41.40
2018-04-14T18:18:47.760Z,41.40
2018-04-14T18:21:51.549Z,41.50
2018-04-14T18:24:56.111Z,41.50
2018-04-14T18:27:59.925Z,41.40
2018-04-14T18:31:03.717Z,41.50
2018-04-14T18:34:07.534Z,41.50
2018-04-14T18:37:11.342Z,41.50
2018-04-14T18:40:15.142Z,41.40
2018-04-14T18:43:18.947Z,41.50
2018-04-14T18:46:23.462Z,41.50
2018-04-14T18:49:27.291Z,41.40
2018-04-14T18:52:31.088Z,41.40
2018-04-14T18:55:34.932Z,41.40
2018-04-14T18:58:38.760Z,41.40
2018-04-14T19:01:42.562Z,41.40
2018-04-14T19:04:46.371Z,41.50
2018-04-14T19:07:50.144Z,41.40
2018-04-14T19:10:53.950Z,41.40
2018-04-14T19:13:57.767Z,41.50
2018-04-14T19:17:01.564Z,41.40
2018-04-14T19:20:06.114Z,41.50
2018-04-14T19:23:10.972Z,41.50
2018-04-14T19:26:14.805Z,41.30
2018-04-14T19:29:18.614Z,41.50
2018-04-14T19:32:22.423Z,41.40
2018-04-14T19:35:26.985Z,41.40
2018-04-14T19:38:30.774Z,41.30
2018-04-14T19:41:34.579Z,41.30
2018-04-14T19:44:38.635Z,41.30
2018-04-14T19:47:42.459Z,41.40
2018-04-14T19:50:46.271Z,41.50
2018-04-14T19:53:50.829Z,41.40
2018-04-14T19:56:54.634Z,41.40
2018-04-14T19:59:58.442Z,41.40
2018-04-14T20:03:02.226Z,41.40
2018-04-14T20:06:06.875Z,41.40
2018-04-14T20:09:11.485Z,41.40
2018-04-14T20:12:15.296Z,41.40
2018-04-14T20:15:19.115Z,41.50
2018-04-14T20:18:22.991Z,41.40
2018-04-14T20:21:27.562Z,41.60
2018-04-14T20:24:31.372Z,41.40
2018-04-14T20:27:35.897Z,41.50
2018-04-14T20:30:40.475Z,41.50
2018-04-14T20:33:44.262Z,41.50
2018-04-14T20:36:48.817Z,41.60
2018-04-14T20:39:53.369Z,41.40
2018-04-14T20:42:57.160Z,41.40
2018-04-14T20:46:00.992Z,41.40
2018-04-14T20:49:05.959Z,41.50
2018-04-14T20:52:10.509Z,41.40
2018-04-14T20:55:14.343Z,41.40
2018-04-14T20:58:18.150Z,41.40
2018-04-14T21:01:21.971Z,41.40
2018-04-14T21:04:26.510Z,41.40
2018-04-14T21:07:31.060Z,41.40
2018-04-14T21:10:35.090Z,41.30
2018-04-14T21:13:38.877Z,41.30
2018-04-14T21:16:42.681Z,41.40
2018-04-14T21:19:46.477Z,41.30
2018-04-14T21:22:50.283Z,41.30
2018-04-14T21:25:54.126Z,41.40
2018-04-14T21:28:57.907Z,41.30
2018-04-14T21:32:02.511Z,41.40
2018-04-14T21:35:06.364Z,41.30
2018-04-14T21:38:10.159Z,41.40
2018-04-14T21:41:14.005Z,41.40
2018-04-14T21:44:17.944Z,41.40
2018-04-14T21:47:21.757Z,41.50
2018-04-14T21:50:25.576Z,41.50
2018-04-14T21:53:29.363Z,41.50
2018-04-14T21:56:33.168Z,41.50
2018-04-14T21:59:36.969Z,41.50
2018-04-14T22:02:41.541Z,41.50
2018-04-14T22:05:45.343Z,41.50
2018-04-14T22:08:49.871Z,41.60
2018-04-14T22:11:54.422Z,42.00
2018-04-14T22:14:58.233Z,41.50
2018-04-14T22:18:02.014Z,42.10
2018-04-14T22:21:06.570Z,41.50
2018-04-14T22:24:10.349Z,41.40
2018-04-14T22:27:14.154Z,41.40
2018-04-14T22:30:17.966Z,41.40
2018-04-14T22:33:21.754Z,41.40
2018-04-14T22:36:26.306Z,41.50
2018-04-14T22:39:30.097Z,41.30
2018-04-14T22:42:33.910Z,41.50
2018-04-14T22:45:37.726Z,41.50
2018-04-14T22:48:41.516Z,41.40
2018-04-14T22:51:45.318Z,41.40
2018-04-14T22:54:49.832Z,41.50
2018-04-14T22:57:53.632Z,41.30
2018-04-14T23:00:57.444Z,41.40
2018-04-14T23:04:01.221Z,41.30
2018-04-14T23:07:05.760Z,41.50
2018-04-14T23:10:10.405Z,41.40
2018-04-14T23:13:14.952Z,41.30
2018-04-14T23:16:19.505Z,41.40
2018-04-14T23:19:23.290Z,41.30
2018-04-14T23:22:27.107Z,41.30
2018-04-14T23:25:31.682Z,41.40
2018-04-14T23:28:35.489Z,41.40
2018-04-14T23:31:39.317Z,41.40
2018-04-14T23:34:43.867Z,41.50
2018-04-14T23:37:48.401Z,41.40
2018-04-14T23:40:52.952Z,41.50
2018-04-14T23:43:56.741Z,41.40
2018-04-14T23:47:01.314Z,41.40
2018-04-14T23:50:05.093Z,41.40
2018-04-14T23:53:08.923Z,41.40
2018-04-14T23:56:12.737Z,41.50
2018-04-14T23:59:16.521Z,41.50
